sensor_id;sensor_type;location;lat;lon;timestamp;P1;durP1;ratioP1;P2;durP2;ratioP2
37971;SDS011;23794;48.234;8.344;2022-08-26T00:01:40;4.03;;;3.58;;
37971;SDS011;23794;48.234;8.344;2022-08-26T00:04:10;3.67;;;3.37;;
37971;SDS011;23794;48.234;8.344;2022-08-26T00:06:37;4.57;;;3.38;;
37971;SDS011;23794;48.234;8.344;2022-08-26T00:09:08;3.83;;;3.17;;
37971;SDS011;23794;48.234;8.344;2022-08-26T00:11:35;3.10;;;2.80;;
37971;SDS011;23794;48.234;8.344;2022-08-26T00:14:02;4.38;;;2.97;;
37971;SDS011;23794;48.234;8.344;2022-08-26T00:16:30;3.30;;;3.00;;
37971;SDS011;23794;48.234;8.344;2022-08-26T00:18:57;3.67;;;3.30;;
37971;SDS011;23794;48.234;8.344;2022-08-26T00:21:25;3.90;;;3.50;;
37971;SDS011;23794;48.234;8.344;2022-08-26T00:23:52;5.35;;;3.53;;
37971;SDS011;23794;48.234;8.344;2022-08-26T00:26:19;3.70;;;3.40;;
37971;SDS011;23794;48.234;8.344;2022-08-26T00:28:46;3.50;;;3.20;;
37971;SDS011;23794;48.234;8.344;2022-08-26T00:31:13;4.13;;;3.10;;
37971;SDS011;23794;48.234;8.344;2022-08-26T00:33:39;3.92;;;3.45;;
37971;SDS011;23794;48.234;8.344;2022-08-26T00:36:07;5.60;;;4.25;;
37971;SDS011;23794;48.234;8.344;2022-08-26T00:38:45;3.83;;;3.40;;
37971;SDS011;23794;48.234;8.344;2022-08-26T00:41:13;4.15;;;3.75;;
37971;SDS011;23794;48.234;8.344;2022-08-26T00:43:42;4.43;;;3.65;;
37971;SDS011;23794;48.234;8.344;2022-08-26T00:46:14;5.50;;;3.70;;
37971;SDS011;23794;48.234;8.344;2022-08-26T00:51:15;5.13;;;3.38;;
37971;SDS011;23794;48.234;8.344;2022-08-26T00:53:47;5.13;;;3.50;;
37971;SDS011;23794;48.234;8.344;2022-08-26T00:59:05;3.50;;;3.20;;
37971;SDS011;23794;48.234;8.344;2022-08-26T01:01:35;3.72;;;3.42;;
37971;SDS011;23794;48.234;8.344;2022-08-26T01:04:03;4.10;;;3.70;;
37971;SDS011;23794;48.234;8.344;2022-08-26T01:06:31;6.00;;;4.00;;
37971;SDS011;23794;48.234;8.344;2022-08-26T01:08:58;6.93;;;4.00;;
37971;SDS011;23794;48.234;8.344;2022-08-26T01:11:25;4.05;;;3.65;;
37971;SDS011;23794;48.234;8.344;2022-08-26T01:13:53;4.28;;;3.88;;
37971;SDS011;23794;48.234;8.344;2022-08-26T01:16:22;3.47;;;3.17;;
37971;SDS011;23794;48.234;8.344;2022-08-26T01:18:53;5.40;;;3.20;;
37971;SDS011;23794;48.234;8.344;2022-08-26T01:21:26;5.32;;;3.97;;
37971;SDS011;23794;48.234;8.344;2022-08-26T01:24:06;4.32;;;3.30;;
37971;SDS011;23794;48.234;8.344;2022-08-26T01:26:36;4.05;;;3.60;;
37971;SDS011;23794;48.234;8.344;2022-08-26T01:29:07;4.55;;;4.15;;
37971;SDS011;23794;48.234;8.344;2022-08-26T01:31:39;3.90;;;3.60;;
37971;SDS011;23794;48.234;8.344;2022-08-26T01:36:42;4.93;;;4.00;;
37971;SDS011;23794;48.234;8.344;2022-08-26T01:39:16;6.35;;;4.13;;
37971;SDS011;23794;48.234;8.344;2022-08-26T01:41:43;4.10;;;3.70;;
37971;SDS011;23794;48.234;8.344;2022-08-26T01:44:13;3.88;;;3.47;;
37971;SDS011;23794;48.234;8.344;2022-08-26T01:46:46;4.88;;;3.80;;
37971;SDS011;23794;48.234;8.344;2022-08-26T01:49:15;4.47;;;3.20;;
37971;SDS011;23794;48.234;8.344;2022-08-26T01:51:43;3.85;;;3.30;;
37971;SDS011;23794;48.234;8.344;2022-08-26T01:54:12;3.75;;;3.40;;
37971;SDS011;23794;48.234;8.344;2022-08-26T01:56:39;5.10;;;3.90;;
37971;SDS011;23794;48.234;8.344;2022-08-26T01:59:08;7.82;;;4.28;;
37971;SDS011;23794;48.234;8.344;2022-08-26T02:01:38;4.05;;;3.65;;
37971;SDS011;23794;48.234;8.344;2022-08-26T02:04:12;6.15;;;3.88;;
37971;SDS011;23794;48.234;8.344;2022-08-26T02:06:49;3.97;;;3.47;;
37971;SDS011;23794;48.234;8.344;2022-08-26T02:09:19;4.90;;;3.47;;
37971;SDS011;23794;48.234;8.344;2022-08-26T02:11:46;4.63;;;3.55;;
37971;SDS011;23794;48.234;8.344;2022-08-26T02:14:18;6.70;;;3.88;;
37971;SDS011;23794;48.234;8.344;2022-08-26T02:16:52;4.70;;;3.67;;
37971;SDS011;23794;48.234;8.344;2022-08-26T02:19:23;5.70;;;3.83;;
37971;SDS011;23794;48.234;8.344;2022-08-26T02:21:55;4.25;;;3.50;;
37971;SDS011;23794;48.234;8.344;2022-08-26T02:24:28;4.97;;;3.92;;
37971;SDS011;23794;48.234;8.344;2022-08-26T02:27:10;6.25;;;3.83;;
37971;SDS011;23794;48.234;8.344;2022-08-26T02:29:40;5.03;;;4.05;;
37971;SDS011;23794;48.234;8.344;2022-08-26T02:32:10;4.50;;;3.53;;
37971;SDS011;23794;48.234;8.344;2022-08-26T02:34:36;4.43;;;4.00;;
37971;SDS011;23794;48.234;8.344;2022-08-26T02:37:07;4.80;;;3.65;;
37971;SDS011;23794;48.234;8.344;2022-08-26T02:39:37;4.28;;;3.88;;
37971;SDS011;23794;48.234;8.344;2022-08-26T02:42:06;5.28;;;3.78;;
37971;SDS011;23794;48.234;8.344;2022-08-26T02:44:33;6.13;;;4.22;;
37971;SDS011;23794;48.234;8.344;2022-08-26T02:47:00;5.22;;;4.00;;
37971;SDS011;23794;48.234;8.344;2022-08-26T02:49:27;6.30;;;4.18;;
37971;SDS011;23794;48.234;8.344;2022-08-26T02:51:55;4.88;;;4.13;;
37971;SDS011;23794;48.234;8.344;2022-08-26T02:54:22;6.10;;;4.30;;
37971;SDS011;23794;48.234;8.344;2022-08-26T02:56:49;4.32;;;3.70;;
37971;SDS011;23794;48.234;8.344;2022-08-26T02:59:16;5.35;;;3.55;;
37971;SDS011;23794;48.234;8.344;2022-08-26T03:01:43;4.30;;;3.72;;
37971;SDS011;23794;48.234;8.344;2022-08-26T03:04:10;5.35;;;3.72;;
37971;SDS011;23794;48.234;8.344;2022-08-26T03:06:40;5.10;;;4.47;;
37971;SDS011;23794;48.234;8.344;2022-08-26T03:09:07;4.50;;;3.85;;
37971;SDS011;23794;48.234;8.344;2022-08-26T03:11:35;5.75;;;4.03;;
37971;SDS011;23794;48.234;8.344;2022-08-26T03:14:02;4.88;;;4.25;;
37971;SDS011;23794;48.234;8.344;2022-08-26T03:16:32;5.35;;;4.20;;
37971;SDS011;23794;48.234;8.344;2022-08-26T03:19:00;4.43;;;4.00;;
37971;SDS011;23794;48.234;8.344;2022-08-26T03:21:28;5.40;;;3.78;;
37971;SDS011;23794;48.234;8.344;2022-08-26T03:23:55;6.20;;;4.10;;
37971;SDS011;23794;48.234;8.344;2022-08-26T03:26:24;4.65;;;4.10;;
37971;SDS011;23794;48.234;8.344;2022-08-26T03:28:53;4.32;;;3.88;;
37971;SDS011;23794;48.234;8.344;2022-08-26T03:31:39;4.78;;;4.28;;
37971;SDS011;23794;48.234;8.344;2022-08-26T03:34:07;4.53;;;3.78;;
37971;SDS011;23794;48.234;8.344;2022-08-26T03:36:36;4.88;;;4.43;;
37971;SDS011;23794;48.234;8.344;2022-08-26T03:39:04;4.88;;;4.00;;
37971;SDS011;23794;48.234;8.344;2022-08-26T03:41:32;5.10;;;4.60;;
37971;SDS011;23794;48.234;8.344;2022-08-26T03:44:00;5.57;;;4.00;;
37971;SDS011;23794;48.234;8.344;2022-08-26T03:46:29;7.13;;;4.47;;
37971;SDS011;23794;48.234;8.344;2022-08-26T03:48:59;5.18;;;4.30;;
37971;SDS011;23794;48.234;8.344;2022-08-26T03:51:27;4.38;;;3.90;;
37971;SDS011;23794;48.234;8.344;2022-08-26T03:53:54;4.93;;;4.30;;
37971;SDS011;23794;48.234;8.344;2022-08-26T03:56:22;4.93;;;4.43;;
37971;SDS011;23794;48.234;8.344;2022-08-26T03:58:49;5.78;;;4.32;;
37971;SDS011;23794;48.234;8.344;2022-08-26T04:01:16;5.93;;;4.80;;
37971;SDS011;23794;48.234;8.344;2022-08-26T04:03:44;4.35;;;3.92;;
37971;SDS011;23794;48.234;8.344;2022-08-26T04:06:30;4.60;;;3.88;;
37971;SDS011;23794;48.234;8.344;2022-08-26T04:09:06;4.28;;;3.88;;
37971;SDS011;23794;48.234;8.344;2022-08-26T04:11:35;4.00;;;3.60;;
37971;SDS011;23794;48.234;8.344;2022-08-26T04:14:06;4.55;;;4.15;;
37971;SDS011;23794;48.234;8.344;2022-08-26T04:16:35;4.03;;;3.63;;
37971;SDS011;23794;48.234;8.344;2022-08-26T04:19:02;4.53;;;3.97;;
37971;SDS011;23794;48.234;8.344;2022-08-26T04:21:29;5.80;;;4.32;;
37971;SDS011;23794;48.234;8.344;2022-08-26T04:23:56;5.15;;;4.18;;
37971;SDS011;23794;48.234;8.344;2022-08-26T04:26:24;4.53;;;4.13;;
37971;SDS011;23794;48.234;8.344;2022-08-26T04:28:52;4.32;;;3.90;;
37971;SDS011;23794;48.234;8.344;2022-08-26T04:31:20;7.20;;;4.07;;
37971;SDS011;23794;48.234;8.344;2022-08-26T04:33:47;4.57;;;4.13;;
37971;SDS011;23794;48.234;8.344;2022-08-26T04:36:15;5.38;;;4.28;;
37971;SDS011;23794;48.234;8.344;2022-08-26T04:38:45;6.60;;;4.28;;
37971;SDS011;23794;48.234;8.344;2022-08-26T04:41:12;4.47;;;3.75;;
37971;SDS011;23794;48.234;8.344;2022-08-26T04:43:42;3.83;;;3.42;;
37971;SDS011;23794;48.234;8.344;2022-08-26T04:46:11;3.95;;;3.55;;
37971;SDS011;23794;48.234;8.344;2022-08-26T04:48:39;4.35;;;3.95;;
37971;SDS011;23794;48.234;8.344;2022-08-26T04:51:07;6.85;;;4.60;;
37971;SDS011;23794;48.234;8.344;2022-08-26T04:53:35;5.30;;;3.40;;
37971;SDS011;23794;48.234;8.344;2022-08-26T04:56:03;4.45;;;3.45;;
37971;SDS011;23794;48.234;8.344;2022-08-26T04:58:30;4.72;;;4.15;;
37971;SDS011;23794;48.234;8.344;2022-08-26T05:00:57;4.15;;;3.75;;
37971;SDS011;23794;48.234;8.344;2022-08-26T05:03:24;5.43;;;4.38;;
37971;SDS011;23794;48.234;8.344;2022-08-26T05:05:56;5.35;;;3.75;;
37971;SDS011;23794;48.234;8.344;2022-08-26T05:08:23;4.65;;;4.13;;
37971;SDS011;23794;48.234;8.344;2022-08-26T05:10:52;4.25;;;3.65;;
37971;SDS011;23794;48.234;8.344;2022-08-26T05:13:22;5.20;;;4.65;;
37971;SDS011;23794;48.234;8.344;2022-08-26T05:15:54;5.22;;;4.03;;
37971;SDS011;23794;48.234;8.344;2022-08-26T05:18:26;4.43;;;3.83;;
37971;SDS011;23794;48.234;8.344;2022-08-26T05:20:55;5.07;;;3.20;;
37971;SDS011;23794;48.234;8.344;2022-08-26T05:23:22;4.20;;;3.30;;
37971;SDS011;23794;48.234;8.344;2022-08-26T05:25:50;3.83;;;3.42;;
37971;SDS011;23794;48.234;8.344;2022-08-26T05:28:25;6.45;;;4.25;;
37971;SDS011;23794;48.234;8.344;2022-08-26T05:30:53;5.25;;;3.90;;
37971;SDS011;23794;48.234;8.344;2022-08-26T05:33:21;4.55;;;3.72;;
37971;SDS011;23794;48.234;8.344;2022-08-26T05:35:48;4.80;;;4.30;;
37971;SDS011;23794;48.234;8.344;2022-08-26T05:38:17;4.40;;;3.40;;
37971;SDS011;23794;48.234;8.344;2022-08-26T05:40:47;6.07;;;4.80;;
37971;SDS011;23794;48.234;8.344;2022-08-26T05:43:18;5.57;;;3.90;;
37971;SDS011;23794;48.234;8.344;2022-08-26T05:45:47;4.30;;;3.88;;
37971;SDS011;23794;48.234;8.344;2022-08-26T05:48:16;5.00;;;4.13;;
37971;SDS011;23794;48.234;8.344;2022-08-26T05:50:52;5.78;;;3.63;;
37971;SDS011;23794;48.234;8.344;2022-08-26T05:53:19;5.35;;;3.65;;
37971;SDS011;23794;48.234;8.344;2022-08-26T05:55:51;4.15;;;3.70;;
37971;SDS011;23794;48.234;8.344;2022-08-26T05:58:20;5.95;;;3.60;;
37971;SDS011;23794;48.234;8.344;2022-08-26T06:00:57;4.15;;;3.72;;
37971;SDS011;23794;48.234;8.344;2022-08-26T06:03:55;6.25;;;3.88;;
37971;SDS011;23794;48.234;8.344;2022-08-26T06:06:29;6.45;;;4.32;;
37971;SDS011;23794;48.234;8.344;2022-08-26T06:09:00;4.75;;;3.80;;
37971;SDS011;23794;48.234;8.344;2022-08-26T06:11:29;4.47;;;3.97;;
37971;SDS011;23794;48.234;8.344;2022-08-26T06:13:59;6.25;;;3.88;;
37971;SDS011;23794;48.234;8.344;2022-08-26T06:16:29;5.32;;;4.07;;
37971;SDS011;23794;48.234;8.344;2022-08-26T06:19:00;4.40;;;3.53;;
37971;SDS011;23794;48.234;8.344;2022-08-26T06:21:36;4.55;;;3.65;;
37971;SDS011;23794;48.234;8.344;2022-08-26T06:24:06;4.45;;;3.63;;
37971;SDS011;23794;48.234;8.344;2022-08-26T06:26:54;6.20;;;4.43;;
37971;SDS011;23794;48.234;8.344;2022-08-26T06:29:26;5.85;;;3.83;;
37971;SDS011;23794;48.234;8.344;2022-08-26T06:31:54;5.38;;;4.43;;
37971;SDS011;23794;48.234;8.344;2022-08-26T06:34:22;4.60;;;4.10;;
37971;SDS011;23794;48.234;8.344;2022-08-26T06:36:56;4.75;;;4.25;;
37971;SDS011;23794;48.234;8.344;2022-08-26T06:39:24;6.63;;;4.65;;
37971;SDS011;23794;48.234;8.344;2022-08-26T06:41:51;4.78;;;4.07;;
37971;SDS011;23794;48.234;8.344;2022-08-26T06:44:18;4.25;;;3.72;;
37971;SDS011;23794;48.234;8.344;2022-08-26T06:46:46;6.15;;;4.60;;
37971;SDS011;23794;48.234;8.344;2022-08-26T06:49:16;5.70;;;4.43;;
37971;SDS011;23794;48.234;8.344;2022-08-26T06:51:52;5.93;;;4.38;;
37971;SDS011;23794;48.234;8.344;2022-08-26T06:54:20;6.03;;;4.30;;
37971;SDS011;23794;48.234;8.344;2022-08-26T06:56:47;4.70;;;4.25;;
37971;SDS011;23794;48.234;8.344;2022-08-26T06:59:14;6.63;;;4.22;;
37971;SDS011;23794;48.234;8.344;2022-08-26T07:01:41;5.63;;;3.92;;
37971;SDS011;23794;48.234;8.344;2022-08-26T07:04:12;6.20;;;4.70;;
37971;SDS011;23794;48.234;8.344;2022-08-26T07:06:48;7.72;;;5.10;;
37971;SDS011;23794;48.234;8.344;2022-08-26T07:09:19;7.70;;;5.75;;
37971;SDS011;23794;48.234;8.344;2022-08-26T07:11:51;6.15;;;4.88;;
37971;SDS011;23794;48.234;8.344;2022-08-26T07:14:20;7.45;;;5.30;;
37971;SDS011;23794;48.234;8.344;2022-08-26T07:16:48;7.57;;;4.80;;
37971;SDS011;23794;48.234;8.344;2022-08-26T07:19:18;4.93;;;4.45;;
37971;SDS011;23794;48.234;8.344;2022-08-26T07:22:00;5.28;;;4.25;;
37971;SDS011;23794;48.234;8.344;2022-08-26T07:24:29;5.05;;;4.13;;
37971;SDS011;23794;48.234;8.344;2022-08-26T07:27:00;5.35;;;4.85;;
37971;SDS011;23794;48.234;8.344;2022-08-26T07:29:30;5.65;;;4.13;;
37971;SDS011;23794;48.234;8.344;2022-08-26T07:31:58;5.40;;;4.15;;
37971;SDS011;23794;48.234;8.344;2022-08-26T07:34:25;5.45;;;3.90;;
37971;SDS011;23794;48.234;8.344;2022-08-26T07:36:52;5.07;;;4.68;;
37971;SDS011;23794;48.234;8.344;2022-08-26T07:39:20;5.05;;;4.53;;
37971;SDS011;23794;48.234;8.344;2022-08-26T07:41:47;6.53;;;4.28;;
37971;SDS011;23794;48.234;8.344;2022-08-26T07:44:14;7.32;;;4.57;;
37971;SDS011;23794;48.234;8.344;2022-08-26T07:46:41;6.00;;;4.15;;
37971;SDS011;23794;48.234;8.344;2022-08-26T07:49:09;11.20;;;4.28;;
37971;SDS011;23794;48.234;8.344;2022-08-26T07:51:37;5.95;;;4.85;;
37971;SDS011;23794;48.234;8.344;2022-08-26T07:54:04;4.60;;;4.18;;
37971;SDS011;23794;48.234;8.344;2022-08-26T07:56:32;3.90;;;3.53;;
37971;SDS011;23794;48.234;8.344;2022-08-26T07:58:58;3.55;;;3.08;;
37971;SDS011;23794;48.234;8.344;2022-08-26T08:01:26;4.28;;;3.38;;
37971;SDS011;23794;48.234;8.344;2022-08-26T08:03:58;4.57;;;3.33;;
37971;SDS011;23794;48.234;8.344;2022-08-26T08:06:27;5.60;;;3.42;;
37971;SDS011;23794;48.234;8.344;2022-08-26T08:08:54;4.70;;;2.92;;
37971;SDS011;23794;48.234;8.344;2022-08-26T08:11:22;4.22;;;3.10;;
37971;SDS011;23794;48.234;8.344;2022-08-26T08:13:51;5.30;;;2.60;;
37971;SDS011;23794;48.234;8.344;2022-08-26T08:16:23;4.38;;;2.88;;
37971;SDS011;23794;48.234;8.344;2022-08-26T08:18:51;2.75;;;2.55;;
37971;SDS011;23794;48.234;8.344;2022-08-26T08:21:19;3.63;;;3.15;;
37971;SDS011;23794;48.234;8.344;2022-08-26T08:23:48;3.72;;;2.80;;
37971;SDS011;23794;48.234;8.344;2022-08-26T08:26:16;4.63;;;3.10;;
37971;SDS011;23794;48.234;8.344;2022-08-26T08:28:43;3.10;;;2.70;;
37971;SDS011;23794;48.234;8.344;2022-08-26T08:31:26;3.28;;;2.75;;
37971;SDS011;23794;48.234;8.344;2022-08-26T08:34:15;7.68;;;2.97;;
37971;SDS011;23794;48.234;8.344;2022-08-26T08:36:43;3.97;;;3.10;;
37971;SDS011;23794;48.234;8.344;2022-08-26T08:39:11;5.07;;;2.92;;
37971;SDS011;23794;48.234;8.344;2022-08-26T08:44:25;3.65;;;2.78;;
37971;SDS011;23794;48.234;8.344;2022-08-26T08:46:55;3.35;;;2.50;;
37971;SDS011;23794;48.234;8.344;2022-08-26T08:49:25;3.20;;;2.90;;
37971;SDS011;23794;48.234;8.344;2022-08-26T08:52:05;3.10;;;2.60;;
37971;SDS011;23794;48.234;8.344;2022-08-26T08:54:37;4.75;;;2.58;;
37971;SDS011;23794;48.234;8.344;2022-08-26T08:57:11;4.20;;;2.58;;
37971;SDS011;23794;48.234;8.344;2022-08-26T08:59:59;7.43;;;2.92;;
37971;SDS011;23794;48.234;8.344;2022-08-26T09:02:35;4.38;;;2.67;;
37971;SDS011;23794;48.234;8.344;2022-08-26T09:05:27;2.88;;;2.63;;
37971;SDS011;23794;48.234;8.344;2022-08-26T09:08:03;3.28;;;2.80;;
37971;SDS011;23794;48.234;8.344;2022-08-26T09:10:43;3.30;;;2.63;;
37971;SDS011;23794;48.234;8.344;2022-08-26T09:13:15;4.22;;;2.67;;
37971;SDS011;23794;48.234;8.344;2022-08-26T09:18:33;3.25;;;2.75;;
37971;SDS011;23794;48.234;8.344;2022-08-26T09:21:24;3.88;;;2.55;;
37971;SDS011;23794;48.234;8.344;2022-08-26T09:23:53;4.97;;;2.67;;
37971;SDS011;23794;48.234;8.344;2022-08-26T09:32:14;2.80;;;2.43;;
37971;SDS011;23794;48.234;8.344;2022-08-26T09:37:42;3.83;;;2.88;;
37971;SDS011;23794;48.234;8.344;2022-08-26T09:40:24;4.43;;;2.42;;
37971;SDS011;23794;48.234;8.344;2022-08-26T09:45:51;3.75;;;2.75;;
37971;SDS011;23794;48.234;8.344;2022-08-26T09:48:36;2.53;;;2.33;;
37971;SDS011;23794;48.234;8.344;2022-08-26T09:51:23;3.38;;;2.35;;
37971;SDS011;23794;48.234;8.344;2022-08-26T09:53:57;3.78;;;2.78;;
37971;SDS011;23794;48.234;8.344;2022-08-26T09:56:27;3.17;;;2.42;;
37971;SDS011;23794;48.234;8.344;2022-08-26T09:58:57;3.90;;;2.38;;
37971;SDS011;23794;48.234;8.344;2022-08-26T10:01:28;3.92;;;2.25;;
37971;SDS011;23794;48.234;8.344;2022-08-26T10:06:31;4.18;;;2.72;;
37971;SDS011;23794;48.234;8.344;2022-08-26T10:09:23;3.30;;;3.00;;
37971;SDS011;23794;48.234;8.344;2022-08-26T10:11:54;2.83;;;2.63;;
37971;SDS011;23794;48.234;8.344;2022-08-26T10:17:01;3.47;;;2.75;;
37971;SDS011;23794;48.234;8.344;2022-08-26T10:22:33;3.13;;;1.97;;
37971;SDS011;23794;48.234;8.344;2022-08-26T10:25:20;2.50;;;2.30;;
37971;SDS011;23794;48.234;8.344;2022-08-26T10:30:29;2.60;;;2.05;;
37971;SDS011;23794;48.234;8.344;2022-08-26T10:33:11;3.33;;;2.30;;
37971;SDS011;23794;48.234;8.344;2022-08-26T10:35:47;3.35;;;2.38;;
37971;SDS011;23794;48.234;8.344;2022-08-26T10:38:21;2.92;;;2.60;;
37971;SDS011;23794;48.234;8.344;2022-08-26T10:41:06;4.20;;;2.38;;
37971;SDS011;23794;48.234;8.344;2022-08-26T10:43:44;3.53;;;3.22;;
37971;SDS011;23794;48.234;8.344;2022-08-26T10:46:19;3.22;;;2.63;;
37971;SDS011;23794;48.234;8.344;2022-08-26T10:48:54;2.90;;;2.55;;
37971;SDS011;23794;48.234;8.344;2022-08-26T10:51:30;2.80;;;2.60;;
37971;SDS011;23794;48.234;8.344;2022-08-26T10:54:08;3.92;;;2.78;;
37971;SDS011;23794;48.234;8.344;2022-08-26T11:02:08;3.95;;;2.70;;
37971;SDS011;23794;48.234;8.344;2022-08-26T11:10:05;3.08;;;2.58;;
37971;SDS011;23794;48.234;8.344;2022-08-26T11:28:35;3.55;;;2.80;;
37971;SDS011;23794;48.234;8.344;2022-08-26T11:31:03;2.72;;;2.50;;
37971;SDS011;23794;48.234;8.344;2022-08-26T11:36:35;4.10;;;3.03;;
37971;SDS011;23794;48.234;8.344;2022-08-26T11:42:31;2.78;;;2.58;;
37971;SDS011;23794;48.234;8.344;2022-08-26T11:45:02;4.30;;;3.13;;
37971;SDS011;23794;48.234;8.344;2022-08-26T11:47:39;3.33;;;3.03;;
37971;SDS011;23794;48.234;8.344;2022-08-26T11:50:22;2.35;;;2.15;;
37971;SDS011;23794;48.234;8.344;2022-08-26T11:52:52;3.35;;;2.30;;
37971;SDS011;23794;48.234;8.344;2022-08-26T11:55:28;4.10;;;1.88;;
37971;SDS011;23794;48.234;8.344;2022-08-26T11:57:58;2.80;;;2.40;;
37971;SDS011;23794;48.234;8.344;2022-08-26T12:00:27;2.97;;;2.30;;
37971;SDS011;23794;48.234;8.344;2022-08-26T12:02:59;2.55;;;2.35;;
37971;SDS011;23794;48.234;8.344;2022-08-26T12:05:33;2.50;;;2.30;;
37971;SDS011;23794;48.234;8.344;2022-08-26T12:08:09;3.38;;;2.30;;
37971;SDS011;23794;48.234;8.344;2022-08-26T12:10:38;2.45;;;2.17;;
37971;SDS011;23794;48.234;8.344;2022-08-26T12:13:05;3.33;;;2.20;;
37971;SDS011;23794;48.234;8.344;2022-08-26T12:15:33;3.40;;;2.30;;
37971;SDS011;23794;48.234;8.344;2022-08-26T12:18:16;3.42;;;3.13;;
37971;SDS011;23794;48.234;8.344;2022-08-26T12:20:57;3.25;;;2.60;;
37971;SDS011;23794;48.234;8.344;2022-08-26T12:26:06;3.22;;;2.78;;
37971;SDS011;23794;48.234;8.344;2022-08-26T12:28:43;3.47;;;3.17;;
37971;SDS011;23794;48.234;8.344;2022-08-26T12:31:34;3.88;;;3.47;;
37971;SDS011;23794;48.234;8.344;2022-08-26T12:34:04;4.03;;;3.63;;
37971;SDS011;23794;48.234;8.344;2022-08-26T12:36:51;3.97;;;3.60;;
37971;SDS011;23794;48.234;8.344;2022-08-26T12:39:31;5.47;;;4.07;;
37971;SDS011;23794;48.234;8.344;2022-08-26T12:44:33;4.05;;;3.38;;
37971;SDS011;23794;48.234;8.344;2022-08-26T12:47:24;8.85;;;4.38;;
37971;SDS011;23794;48.234;8.344;2022-08-26T12:50:17;4.03;;;3.70;;
37971;SDS011;23794;48.234;8.344;2022-08-26T12:55:37;5.05;;;4.05;;
37971;SDS011;23794;48.234;8.344;2022-08-26T13:00:36;4.80;;;2.90;;
37971;SDS011;23794;48.234;8.344;2022-08-26T13:04:06;4.82;;;3.40;;
37971;SDS011;23794;48.234;8.344;2022-08-26T13:09:02;4.88;;;3.83;;
37971;SDS011;23794;48.234;8.344;2022-08-26T13:14:18;3.83;;;3.45;;
37971;SDS011;23794;48.234;8.344;2022-08-26T13:16:49;3.65;;;3.05;;
37971;SDS011;23794;48.234;8.344;2022-08-26T13:19:18;3.63;;;3.25;;
37971;SDS011;23794;48.234;8.344;2022-08-26T13:21:48;5.30;;;3.23;;
37971;SDS011;23794;48.234;8.344;2022-08-26T13:24:41;4.95;;;3.42;;
37971;SDS011;23794;48.234;8.344;2022-08-26T13:27:09;4.45;;;3.50;;
37971;SDS011;23794;48.234;8.344;2022-08-26T13:29:37;4.05;;;2.95;;
37971;SDS011;23794;48.234;8.344;2022-08-26T13:32:04;4.00;;;3.08;;
37971;SDS011;23794;48.234;8.344;2022-08-26T13:34:32;4.78;;;3.33;;
37971;SDS011;23794;48.234;8.344;2022-08-26T13:37:00;4.80;;;3.70;;
37971;SDS011;23794;48.234;8.344;2022-08-26T13:39:27;4.60;;;3.28;;
37971;SDS011;23794;48.234;8.344;2022-08-26T13:41:54;5.03;;;3.25;;
37971;SDS011;23794;48.234;8.344;2022-08-26T13:44:21;4.13;;;3.72;;
37971;SDS011;23794;48.234;8.344;2022-08-26T13:46:47;4.82;;;3.63;;
37971;SDS011;23794;48.234;8.344;2022-08-26T13:49:14;4.20;;;3.80;;
37971;SDS011;23794;48.234;8.344;2022-08-26T13:51:41;3.80;;;3.42;;
37971;SDS011;23794;48.234;8.344;2022-08-26T13:54:08;5.38;;;3.60;;
37971;SDS011;23794;48.234;8.344;2022-08-26T13:56:35;3.88;;;3.28;;
37971;SDS011;23794;48.234;8.344;2022-08-26T13:59:03;7.18;;;3.70;;
37971;SDS011;23794;48.234;8.344;2022-08-26T14:01:31;4.15;;;3.65;;
37971;SDS011;23794;48.234;8.344;2022-08-26T14:03:59;5.30;;;3.60;;
37971;SDS011;23794;48.234;8.344;2022-08-26T14:06:26;4.07;;;3.67;;
37971;SDS011;23794;48.234;8.344;2022-08-26T14:08:52;4.90;;;3.80;;
37971;SDS011;23794;48.234;8.344;2022-08-26T14:11:19;3.75;;;3.45;;
37971;SDS011;23794;48.234;8.344;2022-08-26T14:13:46;4.43;;;4.03;;
37971;SDS011;23794;48.234;8.344;2022-08-26T14:16:20;6.55;;;3.92;;
37971;SDS011;23794;48.234;8.344;2022-08-26T14:18:52;5.22;;;4.00;;
37971;SDS011;23794;48.234;8.344;2022-08-26T14:21:19;5.05;;;4.10;;
37971;SDS011;23794;48.234;8.344;2022-08-26T14:23:46;4.53;;;4.00;;
37971;SDS011;23794;48.234;8.344;2022-08-26T14:26:13;6.05;;;3.97;;
37971;SDS011;23794;48.234;8.344;2022-08-26T14:28:55;5.03;;;4.28;;
37971;SDS011;23794;48.234;8.344;2022-08-26T14:31:26;4.57;;;4.15;;
37971;SDS011;23794;48.234;8.344;2022-08-26T14:33:55;5.70;;;3.80;;
37971;SDS011;23794;48.234;8.344;2022-08-26T14:36:24;4.65;;;4.25;;
37971;SDS011;23794;48.234;8.344;2022-08-26T14:38:54;4.10;;;3.55;;
37971;SDS011;23794;48.234;8.344;2022-08-26T14:43:54;4.63;;;3.95;;
37971;SDS011;23794;48.234;8.344;2022-08-26T14:46:32;4.78;;;4.03;;
37971;SDS011;23794;48.234;8.344;2022-08-26T14:49:10;5.32;;;4.20;;
37971;SDS011;23794;48.234;8.344;2022-08-26T14:51:38;6.13;;;4.00;;
37971;SDS011;23794;48.234;8.344;2022-08-26T14:54:09;4.15;;;3.45;;
37971;SDS011;23794;48.234;8.344;2022-08-26T14:59:20;6.05;;;4.30;;
37971;SDS011;23794;48.234;8.344;2022-08-26T15:01:49;6.10;;;4.32;;
37971;SDS011;23794;48.234;8.344;2022-08-26T15:04:17;6.10;;;4.18;;
37971;SDS011;23794;48.234;8.344;2022-08-26T15:06:44;4.05;;;3.65;;
37971;SDS011;23794;48.234;8.344;2022-08-26T15:09:11;4.93;;;4.40;;
37971;SDS011;23794;48.234;8.344;2022-08-26T15:11:38;6.72;;;5.18;;
37971;SDS011;23794;48.234;8.344;2022-08-26T15:14:05;4.90;;;4.10;;
37971;SDS011;23794;48.234;8.344;2022-08-26T15:16:40;4.72;;;3.67;;
37971;SDS011;23794;48.234;8.344;2022-08-26T15:19:07;5.53;;;3.72;;
37971;SDS011;23794;48.234;8.344;2022-08-26T15:21:34;4.15;;;2.97;;
37971;SDS011;23794;48.234;8.344;2022-08-26T15:24:02;3.45;;;3.15;;
37971;SDS011;23794;48.234;8.344;2022-08-26T15:26:30;3.70;;;2.55;;
37971;SDS011;23794;48.234;8.344;2022-08-26T15:28:58;3.50;;;3.20;;
37971;SDS011;23794;48.234;8.344;2022-08-26T15:31:30;3.97;;;2.88;;
37971;SDS011;23794;48.234;8.344;2022-08-26T15:34:08;5.05;;;3.50;;
37971;SDS011;23794;48.234;8.344;2022-08-26T15:36:41;3.63;;;2.97;;
37971;SDS011;23794;48.234;8.344;2022-08-26T15:39:10;3.97;;;2.90;;
37971;SDS011;23794;48.234;8.344;2022-08-26T15:41:37;4.15;;;2.88;;
37971;SDS011;23794;48.234;8.344;2022-08-26T15:44:05;3.60;;;3.17;;
37971;SDS011;23794;48.234;8.344;2022-08-26T15:46:33;3.63;;;3.30;;
37971;SDS011;23794;48.234;8.344;2022-08-26T15:49:02;5.82;;;3.65;;
37971;SDS011;23794;48.234;8.344;2022-08-26T15:51:30;4.88;;;3.35;;
37971;SDS011;23794;48.234;8.344;2022-08-26T15:54:11;2.85;;;2.63;;
37971;SDS011;23794;48.234;8.344;2022-08-26T15:56:38;4.70;;;3.10;;
37971;SDS011;23794;48.234;8.344;2022-08-26T15:59:05;5.57;;;3.42;;
37971;SDS011;23794;48.234;8.344;2022-08-26T16:01:33;3.63;;;2.80;;
37971;SDS011;23794;48.234;8.344;2022-08-26T16:04:01;2.97;;;2.67;;
37971;SDS011;23794;48.234;8.344;2022-08-26T16:06:29;3.25;;;2.95;;
37971;SDS011;23794;48.234;8.344;2022-08-26T16:08:58;4.20;;;3.20;;
37971;SDS011;23794;48.234;8.344;2022-08-26T16:11:26;3.85;;;2.95;;
37971;SDS011;23794;48.234;8.344;2022-08-26T16:13:53;4.72;;;2.95;;
37971;SDS011;23794;48.234;8.344;2022-08-26T16:16:20;6.05;;;3.15;;
37971;SDS011;23794;48.234;8.344;2022-08-26T16:18:48;3.25;;;2.70;;
37971;SDS011;23794;48.234;8.344;2022-08-26T16:21:16;2.75;;;2.50;;
37971;SDS011;23794;48.234;8.344;2022-08-26T16:23:45;4.43;;;3.05;;
37971;SDS011;23794;48.234;8.344;2022-08-26T16:26:17;3.35;;;2.80;;
37971;SDS011;23794;48.234;8.344;2022-08-26T16:28:47;3.65;;;3.15;;
37971;SDS011;23794;48.234;8.344;2022-08-26T16:31:14;3.63;;;3.13;;
37971;SDS011;23794;48.234;8.344;2022-08-26T16:33:41;4.22;;;2.83;;
37971;SDS011;23794;48.234;8.344;2022-08-26T16:36:08;2.67;;;2.28;;
37971;SDS011;23794;48.234;8.344;2022-08-26T16:38:37;3.70;;;2.50;;
37971;SDS011;23794;48.234;8.344;2022-08-26T16:41:04;2.90;;;2.60;;